createdAt,value
2022-08-09T00:02:06.746Z,5.20
2022-08-09T00:06:18.144Z,4.40
2022-08-09T00:08:39.059Z,4.20
2022-08-09T00:11:58.690Z,4.90
2022-08-09T00:15:14.740Z,4.60
2022-08-09T00:18:21.110Z,4.40
2022-08-09T00:21:28.052Z,5.20
2022-08-09T00:24:35.015Z,4.50
2022-08-09T00:27:44.176Z,4.10
2022-08-09T00:30:56.767Z,4.30
2022-08-09T00:34:03.085Z,4.20
2022-08-09T00:37:09.010Z,3.90
2022-08-09T00:40:17.393Z,4.30
2022-08-09T00:44:10.467Z,4.10
2022-08-09T00:46:56.882Z,4.30
2022-08-09T00:50:14.647Z,4.40
2022-08-09T00:53:24.006Z,4.60
2022-08-09T00:56:30.953Z,4.40
2022-08-09T00:59:41.102Z,4.80
2022-08-09T01:02:51.181Z,4.60
2022-08-09T01:06:17.576Z,4.70
2022-08-09T01:09:36.978Z,4.50
2022-08-09T01:12:52.922Z,4.40
2022-08-09T01:16:00.842Z,4.50
2022-08-09T01:19:42.701Z,4.30
2022-08-09T01:23:04.770Z,4.40
2022-08-09T01:26:55.959Z,4.10
2022-08-09T01:30:05.582Z,4.10
2022-08-09T01:33:15.823Z,4.40
2022-08-09T01:36:27.314Z,4.40
2022-08-09T01:39:36.722Z,4.00
2022-08-09T01:42:43.747Z,4.20
2022-08-09T01:45:51.429Z,4.20
2022-08-09T01:49:10.392Z,4.30
2022-08-09T01:52:21.088Z,4.40
2022-08-09T01:55:31.257Z,4.00
2022-08-09T01:58:40.226Z,4.60
2022-08-09T02:01:59.382Z,4.40
2022-08-09T02:05:15.309Z,4.20
2022-08-09T02:08:39.588Z,4.50
2022-08-09T02:11:50.191Z,4.20
2022-08-09T02:14:57.958Z,3.90
2022-08-09T02:18:10.521Z,3.80
2022-08-09T02:21:22.133Z,4.60
2022-08-09T02:24:35.602Z,4.00
2022-08-09T02:28:00.199Z,4.20
2022-08-09T02:31:12.575Z,4.80
2022-08-09T02:34:25.888Z,4.20
2022-08-09T02:37:51.279Z,4.30
2022-08-09T02:41:03.409Z,3.90
2022-08-09T02:44:25.562Z,4.10
2022-08-09T02:47:57.362Z,4.30
2022-08-09T02:51:05.638Z,4.20
2022-08-09T02:54:15.030Z,4.40
2022-08-09T02:57:23.963Z,3.90
2022-08-09T03:00:32.372Z,3.90
2022-08-09T03:04:17.475Z,4.40
2022-08-09T03:07:14.032Z,4.50
2022-08-09T03:10:22.053Z,4.30
2022-08-09T03:13:43.984Z,4.30
2022-08-09T03:16:58.248Z,3.90
2022-08-09T03:20:11.601Z,4.30
2022-08-09T03:23:24.688Z,4.30
2022-08-09T03:26:32.448Z,4.40
2022-08-09T03:29:57.373Z,4.60
2022-08-09T03:33:17.877Z,4.40
2022-08-09T03:36:27.352Z,4.60
2022-08-09T03:39:37.808Z,4.10
2022-08-09T03:42:44.599Z,3.80
2022-08-09T03:46:05.019Z,3.90
2022-08-09T03:49:19.224Z,4.50
2022-08-09T03:52:31.093Z,4.30
2022-08-09T03:55:40.828Z,4.00
2022-08-09T03:58:50.136Z,4.50
2022-08-09T04:01:59.139Z,4.10
2022-08-09T04:05:26.559Z,4.50
2022-08-09T04:08:33.160Z,4.60
2022-08-09T04:12:08.704Z,4.40
2022-08-09T04:15:42.552Z,4.20
2022-08-09T04:18:45.866Z,4.50
2022-08-09T04:21:52.550Z,4.40
2022-08-09T04:24:59.010Z,4.00
2022-08-09T04:28:05.482Z,4.10
2022-08-09T04:31:13.015Z,4.30
2022-08-09T04:34:30.593Z,4.20
2022-08-09T04:37:46.055Z,4.30
2022-08-09T04:40:56.368Z,4.40
2022-08-09T04:44:05.680Z,4.90
2022-08-09T04:47:12.477Z,5.00
2022-08-09T04:50:20.169Z,4.30
2022-08-09T04:53:26.362Z,4.50
2022-08-09T04:56:32.486Z,4.40
2022-08-09T04:59:40.923Z,4.40
2022-08-09T05:02:52.477Z,4.90
2022-08-09T05:06:06.526Z,4.40
2022-08-09T05:09:13.427Z,4.60
2022-08-09T05:12:22.626Z,4.30
2022-08-09T05:15:38.765Z,4.40
2022-08-09T05:18:57.344Z,3.90
2022-08-09T05:22:05.784Z,4.10
2022-08-09T05:25:32.709Z,3.80
2022-08-09T05:28:38.846Z,5.20
2022-08-09T05:31:46.587Z,4.30
2022-08-09T05:34:55.524Z,4.00
2022-08-09T05:38:02.003Z,4.30
2022-08-09T05:41:12.803Z,4.20
2022-08-09T05:44:22.075Z,4.90
2022-08-09T05:47:35.186Z,4.30
2022-08-09T05:51:12.098Z,3.80
2022-08-09T05:54:18.074Z,5.20
2022-08-09T05:57:25.012Z,3.50
2022-08-09T06:00:50.682Z,3.20
2022-08-09T06:03:58.926Z,3.30
2022-08-09T06:07:05.770Z,3.70
2022-08-09T06:10:18.114Z,3.10
2022-08-09T06:13:28.396Z,3.80
2022-08-09T06:16:40.435Z,2.80
2022-08-09T06:19:47.523Z,2.80
2022-08-09T06:22:55.543Z,4.00
2022-08-09T06:26:02.223Z,3.40
2022-08-09T06:29:09.489Z,3.10
2022-08-09T06:32:59.429Z,3.90
2022-08-09T06:35:56.902Z,3.20
2022-08-09T06:39:09.290Z,3.10
2022-08-09T06:42:19.847Z,3.70
2022-08-09T06:46:04.720Z,3.70
2022-08-09T07:02:13.408Z,2.80
2022-08-09T07:05:22.373Z,4.00
2022-08-09T07:08:27.865Z,4.60
2022-08-09T07:11:51.971Z,4.70
2022-08-09T07:14:59.099Z,3.50
2022-08-09T07:21:30.975Z,3.10
2022-08-09T07:24:40.766Z,3.10
2022-08-09T07:27:55.470Z,6.20
2022-08-09T07:31:01.503Z,5.10
2022-08-09T07:34:08.302Z,4.00
2022-08-09T07:37:25.769Z,4.00
2022-08-09T07:40:54.179Z,4.60
2022-08-09T07:47:02.178Z,3.30
2022-08-09T07:50:09.268Z,4.20
2022-08-09T07:53:15.065Z,4.10
2022-08-09T08:00:02.727Z,7.40
2022-08-09T08:03:09.819Z,3.90
2022-08-09T08:06:21.175Z,6.60
2022-08-09T08:09:35.249Z,3.40
2022-08-09T08:12:50.003Z,2.80
2022-08-09T08:15:55.519Z,2.70
2022-08-09T08:19:04.824Z,8.70
2022-08-09T08:22:10.329Z,4.10
2022-08-09T08:25:15.965Z,2.80
2022-08-09T08:28:32.001Z,4.20
2022-08-09T08:31:56.464Z,2.70
2022-08-09T08:38:11.592Z,3.90
2022-08-09T08:41:17.460Z,5.30
2022-08-09T08:44:28.766Z,4.90
2022-08-09T08:47:38.551Z,3.10
2022-08-09T08:50:51.956Z,4.40
2022-08-09T08:54:03.881Z,4.30
2022-08-09T08:57:12.016Z,2.60
2022-08-09T09:00:27.361Z,3.20
2022-08-09T09:03:37.910Z,3.80
2022-08-09T09:06:46.344Z,3.20
2022-08-09T09:10:01.919Z,2.80
2022-08-09T09:13:11.584Z,2.60
2022-08-09T09:16:30.369Z,2.60
2022-08-09T09:19:41.131Z,2.80
2022-08-09T09:23:01.470Z,2.60
2022-08-09T09:26:12.242Z,2.70
2022-08-09T09:29:40.966Z,3.70
2022-08-09T09:33:15.863Z,2.70
2022-08-09T09:36:23.072Z,2.50
2022-08-09T09:39:55.342Z,2.40
2022-08-09T09:42:59.266Z,2.30
2022-08-09T09:50:13.313Z,2.80
2022-08-09T09:52:58.505Z,2.20
2022-08-09T09:56:05.791Z,2.10
2022-08-09T09:59:13.058Z,2.70
2022-08-09T10:02:23.301Z,2.40
2022-08-09T10:06:03.598Z,2.40
2022-08-09T10:09:21.897Z,2.20
2022-08-09T10:12:31.641Z,2.10
2022-08-09T10:16:08.952Z,3.10
2022-08-09T10:19:15.728Z,2.30
2022-08-09T10:22:33.080Z,2.20
2022-08-09T10:26:06.219Z,1.90
2022-08-09T10:29:22.705Z,2.20
2022-08-09T10:32:42.532Z,2.20
2022-08-09T10:35:49.589Z,2.20
2022-08-09T10:38:59.791Z,2.20
2022-08-09T10:42:06.609Z,2.50
2022-08-09T10:45:16.504Z,2.30
2022-08-09T10:48:30.045Z,2.30
2022-08-09T10:51:56.324Z,2.10
2022-08-09T10:55:22.787Z,2.20
2022-08-09T11:15:50.919Z,2.10
2022-08-09T11:19:01.498Z,2.10
2022-08-09T11:22:18.837Z,2.10
2022-08-09T11:25:54.738Z,2.40
2022-08-09T11:29:01.139Z,2.40
2022-08-09T11:32:08.282Z,2.60
2022-08-09T11:35:18.873Z,2.50
2022-08-09T11:38:35.063Z,2.60
2022-08-09T11:41:48.781Z,2.80
2022-08-09T11:44:57.287Z,2.40
2022-08-09T11:48:26.154Z,2.30
2022-08-09T11:52:59.188Z,2.40
2022-08-09T11:55:53.660Z,2.10
2022-08-09T11:59:05.642Z,2.60
2022-08-09T12:02:16.904Z,3.20
2022-08-09T12:05:34.468Z,4.30
2022-08-09T12:08:51.018Z,2.40
2022-08-09T12:12:04.091Z,2.50
2022-08-09T12:15:50.323Z,2.20
2022-08-09T12:18:53.809Z,1.80
2022-08-09T12:22:03.206Z,1.80
2022-08-09T12:25:17.118Z,2.00
2022-08-09T12:29:12.311Z,1.90
2022-08-09T12:32:03.391Z,1.90
2022-08-09T12:35:13.446Z,1.90
2022-08-09T12:38:38.133Z,1.70
2022-08-09T12:41:44.861Z,1.90
2022-08-09T12:44:52.342Z,1.90
2022-08-09T12:48:01.071Z,1.80
2022-08-09T12:51:10.719Z,2.70
2022-08-09T12:54:17.960Z,2.00
2022-08-09T12:57:41.802Z,2.30
2022-08-09T13:00:48.723Z,2.30
2022-08-09T13:04:03.364Z,2.20
2022-08-09T13:07:19.899Z,2.20
2022-08-09T13:10:44.534Z,2.10
2022-08-09T13:14:42.348Z,1.90
2022-08-09T13:17:58.682Z,1.90
2022-08-09T13:22:33.434Z,1.90
2022-08-09T13:24:53.329Z,2.40
2022-08-09T13:32:16.568Z,2.30
2022-08-09T13:34:42.294Z,2.30
2022-08-09T13:37:51.367Z,2.20
2022-08-09T13:41:46.954Z,2.00
2022-08-09T13:44:29.219Z,2.50
2022-08-09T13:47:49.564Z,2.20
2022-08-09T13:50:58.920Z,2.20
2022-08-09T13:54:05.218Z,2.10
2022-08-09T13:57:14.490Z,2.10
2022-08-09T14:00:44.822Z,2.20
2022-08-09T14:04:02.792Z,1.70
2022-08-09T14:07:11.500Z,1.50
2022-08-09T14:10:37.748Z,1.90
2022-08-09T14:14:24.822Z,1.70
2022-08-09T14:17:12.156Z,1.80
2022-08-09T14:20:18.905Z,1.60
2022-08-09T14:23:53.748Z,1.90
2022-08-09T14:26:53.517Z,2.00
2022-08-09T14:30:34.503Z,1.80
2022-08-09T14:33:26.338Z,1.70
2022-08-09T14:36:35.320Z,1.60
2022-08-09T14:39:48.558Z,1.70
2022-08-09T14:42:55.020Z,2.10
2022-08-09T14:46:54.552Z,1.70
2022-08-09T14:49:34.673Z,1.80
2022-08-09T14:52:55.421Z,1.60
2022-08-09T14:56:01.553Z,1.80
2022-08-09T14:59:09.039Z,1.80
2022-08-09T15:02:20.700Z,1.70
2022-08-09T15:05:27.274Z,1.90
2022-08-09T15:08:35.742Z,1.80
2022-08-09T15:11:48.657Z,1.80
2022-08-09T15:14:56.035Z,1.80
2022-08-09T15:18:02.276Z,2.00
2022-08-09T15:22:01.454Z,2.10
2022-08-09T15:24:35.023Z,1.90
2022-08-09T15:27:47.998Z,2.10
2022-08-09T15:31:08.644Z,2.00
2022-08-09T15:34:33.408Z,2.00
2022-08-09T15:37:57.133Z,2.10
2022-08-09T15:41:09.777Z,2.00
2022-08-09T15:44:16.190Z,2.40
2022-08-09T15:47:31.888Z,1.80
2022-08-09T15:50:52.428Z,2.60
2022-08-09T15:54:05.973Z,2.00
2022-08-09T15:57:14.152Z,1.90
2022-08-09T16:00:26.793Z,1.90
2022-08-09T16:03:37.951Z,1.90
2022-08-09T16:06:50.631Z,2.00
2022-08-09T16:10:03.976Z,1.80
2022-08-09T16:13:21.067Z,1.90
2022-08-09T16:16:41.758Z,2.20
2022-08-09T16:20:04.829Z,2.00
2022-08-09T16:23:15.145Z,2.60
2022-08-09T16:26:33.552Z,2.50
2022-08-09T16:29:50.540Z,2.30
2022-08-09T16:33:16.122Z,2.60
2022-08-09T16:36:22.634Z,2.30
2022-08-09T16:39:31.747Z,2.20
2022-08-09T16:42:54.551Z,2.20
2022-08-09T16:46:01.895Z,3.90
2022-08-09T16:49:17.731Z,3.50
2022-08-09T16:52:35.835Z,2.00
2022-08-09T16:56:01.407Z,1.80
2022-08-09T16:59:10.607Z,1.90
2022-08-09T17:02:17.791Z,1.80
2022-08-09T17:06:06.974Z,2.20
2022-08-09T17:08:58.926Z,2.40
2022-08-09T17:12:11.666Z,3.10
2022-08-09T17:15:31.082Z,3.10
2022-08-09T17:18:45.362Z,2.30
2022-08-09T17:21:54.448Z,2.40
2022-08-09T17:25:03.754Z,2.30
2022-08-09T17:28:10.983Z,2.60
2022-08-09T17:31:20.047Z,3.00
2022-08-09T17:35:00.827Z,3.20
2022-08-09T17:38:12.992Z,3.60
2022-08-09T17:41:21.485Z,3.10
2022-08-09T17:44:47.946Z,3.20
2022-08-09T17:48:02.696Z,3.60
2022-08-09T17:51:18.041Z,4.70
2022-08-09T17:54:29.592Z,4.90
2022-08-09T17:58:03.730Z,3.30
2022-08-09T18:01:02.252Z,2.80
2022-08-09T18:04:08.618Z,3.30
2022-08-09T18:07:22.979Z,2.90
2022-08-09T18:10:31.134Z,2.70
2022-08-09T18:13:56.514Z,3.00
2022-08-09T18:17:04.958Z,2.70
2022-08-09T18:20:54.060Z,3.00
2022-08-09T18:24:09.674Z,3.90
2022-08-09T18:27:06.849Z,3.00
2022-08-09T18:30:41.576Z,3.20
2022-08-09T18:33:44.278Z,3.80
2022-08-09T18:36:59.670Z,3.90
2022-08-09T18:40:07.218Z,4.10
2022-08-09T18:43:13.811Z,3.30
2022-08-09T18:46:46.759Z,2.70
2022-08-09T18:49:48.601Z,3.20
2022-08-09T18:53:00.767Z,4.10
2022-08-09T18:56:10.229Z,3.40
2022-08-09T18:59:16.614Z,3.70
2022-08-09T19:02:31.802Z,3.30
2022-08-09T19:06:02.270Z,3.00
2022-08-09T19:09:07.860Z,2.80
2022-08-09T19:12:21.832Z,2.70
2022-08-09T19:15:28.703Z,3.30
2022-08-09T19:18:38.690Z,3.30
2022-08-09T19:22:04.913Z,3.20
2022-08-09T19:25:41.754Z,3.70
2022-08-09T19:28:42.684Z,3.70
2022-08-09T19:31:59.863Z,3.70
2022-08-09T19:35:07.435Z,4.20
2022-08-09T19:38:13.658Z,4.50
2022-08-09T19:41:33.391Z,5.90
2022-08-09T19:44:42.142Z,6.00
2022-08-09T19:47:48.279Z,4.60
2022-08-09T19:50:54.544Z,4.60
2022-08-09T19:54:01.242Z,4.90
2022-08-09T19:57:08.513Z,4.60
2022-08-09T20:00:18.015Z,5.00
2022-08-09T20:04:26.567Z,5.40
2022-08-09T20:06:50.279Z,5.40
2022-08-09T20:09:56.434Z,4.70
2022-08-09T20:13:03.094Z,4.90
2022-08-09T20:16:34.006Z,4.00
2022-08-09T20:19:47.596Z,3.30
2022-08-09T20:22:56.329Z,3.10
2022-08-09T20:26:03.080Z,3.30
2022-08-09T20:29:19.054Z,3.00
2022-08-09T20:32:30.750Z,2.80
2022-08-09T20:35:40.200Z,3.00
2022-08-09T20:39:28.695Z,2.80
2022-08-09T20:42:17.820Z,3.00
2022-08-09T20:45:59.836Z,3.10
2022-08-09T20:48:51.615Z,2.90
2022-08-09T20:51:57.821Z,2.90
2022-08-09T20:55:09.075Z,3.30
2022-08-09T20:58:20.211Z,2.90
2022-08-09T21:01:34.274Z,3.10
2022-08-09T21:05:56.670Z,3.00
2022-08-09T21:08:20.287Z,3.20
2022-08-09T21:14:57.412Z,3.50
2022-08-09T21:18:22.453Z,3.30
2022-08-09T21:21:46.365Z,3.20
2022-08-09T21:25:13.622Z,3.20
2022-08-09T21:28:20.758Z,2.70
2022-08-09T21:31:49.364Z,2.90
2022-08-09T21:34:56.363Z,3.10
2022-08-09T21:38:03.026Z,3.10
2022-08-09T21:41:09.219Z,3.10
2022-08-09T21:44:33.307Z,3.00
2022-08-09T21:47:42.463Z,3.00
2022-08-09T21:50:51.330Z,3.10
2022-08-09T21:53:58.135Z,3.40
2022-08-09T21:57:05.833Z,3.40
2022-08-09T22:00:15.703Z,3.60
2022-08-09T22:03:25.489Z,3.50
2022-08-09T22:06:32.359Z,3.50
2022-08-09T22:09:38.531Z,3.80
2022-08-09T22:12:50.334Z,3.60
2022-08-09T22:15:56.406Z,3.80
2022-08-09T22:22:07.485Z,3.50
2022-08-09T22:26:08.247Z,3.70
2022-08-09T22:28:47.364Z,3.70
2022-08-09T22:32:00.507Z,3.60
2022-08-09T22:36:02.260Z,3.60
2022-08-09T22:38:33.964Z,3.80
2022-08-09T22:41:43.702Z,3.30
2022-08-09T22:48:05.088Z,3.00
2022-08-09T22:48:35.919Z,3.70
2022-08-09T22:51:43.510Z,3.70
2022-08-09T22:54:56.249Z,3.80
2022-08-09T22:58:02.361Z,3.50
2022-08-09T23:01:11.591Z,3.60
2022-08-09T23:04:19.306Z,3.60
2022-08-09T23:08:27.353Z,3.40
2022-08-09T23:11:11.154Z,3.90
2022-08-09T23:14:17.735Z,3.70
2022-08-09T23:17:43.528Z,3.30
2022-08-09T23:24:05.276Z,3.50
2022-08-09T23:27:13.283Z,3.70
2022-08-09T23:30:20.068Z,3.50
2022-08-09T23:33:26.629Z,3.40
2022-08-09T23:36:32.816Z,3.50
2022-08-09T23:39:39.064Z,4.00
2022-08-09T23:42:45.214Z,3.90
2022-08-09T23:48:55.825Z,4.70
2022-08-09T23:52:01.945Z,3.70
2022-08-09T23:58:26.102Z,3.50
